• Join FlightAware (Why Join?)
  • Login
  • US Flag 
07:23PM EST


 

Airport Tracker/Info


-or-


 

Live Flight TrackerFlight Track Log ✈ SWA1017 ✈ 18-Apr-2013 ✈ KAUS - KDAL

Flight Track Log - Related Links

Times and Time Zones

All times are in EDT time to prevent confusion due to time zone crossing. See the SWA1017 flight status page for this flight to view local times or setup timezone preferences in your user account.

Time Position Orientation Groundspeed Altitude Reporting Facility
EDT Latitude Longitude Course Direction KTS MPH feet Rate Location/Type
05:20PM 30.3961 -97.7611 335° Northwest 233 268 7,700  Level Houston Center
05:21PM 30.4742 -97.7975 338° Northwest 286 329 10,400 2,160 Climbing Houston Center
05:22PM 30.5594 -97.8378 338° Northwest 317 365 12,200 1,920 Climbing Houston Center
05:23PM 30.6266 -97.7149 323° Northwest  Level FlightAware Approximate
05:23PM 30.6550 -97.8758 341° North 349 402 14,400  Level Houston Center
05:24PM 30.7026 -97.7693 319° Northwest  Level FlightAware Approximate
05:24PM 30.7583 -97.9117 343° North 375 432 16,500  Level Houston Center
05:25PM 30.8664 -97.9478 344° North 394 453 18,900 1,680 Climbing Houston Center
05:26PM 30.9925 -97.9928 343° North 397 457 20,000 480 Climbing Houston Center
05:27PM 31.1022 -98.0300 344° North 403 464 20,000  Level Houston Center
05:28PM 31.1406 -98.0467 340° North 402 463 20,000  Level Fort Worth Center
05:29PM 31.2492 -98.0817 345° North 407 468 20,000  Level Fort Worth Center
05:30PM 31.3575 -98.1211 343° North 402 463 20,000 -60 Level Fort Worth Center
05:31PM 31.4700 -98.1561 345° North 402 463 19,900 -600 Descending Fort Worth Center
05:32PM 31.5767 -98.1083 21° North 389 448 18,800 -1,080 Descending Fort Worth Center
05:33PM 31.6817 -98.0189 36° Northeast 395 455 17,800 -1,020 Descending Fort Worth Center
05:34PM 31.7758 -97.9339 37° Northeast 412 474 16,800 -1,080 Descending Fort Worth Center
05:35PM 31.8658 -97.8536 37° Northeast 417 480 15,700 -1,080 Descending Fort Worth Center
05:36PM 31.9561 -97.7758 36° Northeast 409 471 14,700 -900 Descending Fort Worth Center
05:37PM 32.0333 -97.7075 37° Northeast 394 453 13,900 -960 Descending Fort Worth Center
05:38PM 32.1297 -97.6194 38° Northeast 387 445 12,800 -1,020 Descending Fort Worth Center
05:39PM 32.2050 -97.5533 37° Northeast 387 445 11,900 -420 Descending Fort Worth Center
05:40PM 32.2906 -97.4772 37° Northeast 365 420 12,000 -480 Climbing Fort Worth Center
05:41PM 32.3575 -97.4086 41° Northeast 355 409 11,000 -1,200 Descending Fort Worth Center
05:42PM 32.3867 -97.2978 73° East 320 368 9,700 -1,260 Descending Fort Worth Center
05:43PM 32.3947 -97.1969 85° East 320 368 8,500 -1,380 Descending Fort Worth Center
05:44PM 32.3861 -97.0836 95° East 314 361 7,000 -1,260 Descending Fort Worth Center
05:45PM 32.3797 -96.9978 95° East 305 351 6,000 -1,140 Descending Fort Worth Center
05:46PM 32.4294 -96.9236 52° Northeast 252 290 4,800 -1,020 Descending Fort Worth Center
05:47PM 32.4794 -96.8642 45° Northeast 246 283 4,000 -480 Descending Fort Worth Center
05:48PM 32.5314 -96.8147 39° Northeast 239 275 3,900 -540 Descending Fort Worth Center
05:49PM 32.5897 -96.7944 16° North 229 264 3,000 -480 Descending Fort Worth Center
05:50PM 32.6606 -96.7867 North 229 264 3,000 -240 Level Fort Worth Center
05:51PM 32.7128 -96.7814 North 218 251 2,600 -420 Descending Fort Worth Center
05:52PM 32.7650 -96.7761 North 192 221 2,200 -540 Descending Fort Worth Center
05:53PM 32.8000 -96.8000 330° Northwest 135 155 1,500 -720 Descending Dallas / Fort Worth TRACON
05:54PM 32.8333 -96.8333 320° Northwest 128 147 700 -720 Descending Dallas / Fort Worth TRACON